sensor_id;sensor_type;location;lat;lon;timestamp;P1;durP1;ratioP1;P2;durP2;ratioP2
1721;SDS011;858;53.190;8.596;2023-12-29T00:01:46;6.47;;;2.90;;
1721;SDS011;858;53.190;8.596;2023-12-29T00:04:12;11.13;;;3.10;;
1721;SDS011;858;53.190;8.596;2023-12-29T00:06:39;8.30;;;2.60;;
1721;SDS011;858;53.190;8.596;2023-12-29T00:09:06;8.53;;;3.40;;
1721;SDS011;858;53.190;8.596;2023-12-29T00:11:33;8.13;;;3.30;;
1721;SDS011;858;53.190;8.596;2023-12-29T00:13:59;12.53;;;3.90;;
1721;SDS011;858;53.190;8.596;2023-12-29T00:16:27;10.57;;;3.37;;
1721;SDS011;858;53.190;8.596;2023-12-29T00:18:53;8.30;;;2.70;;
1721;SDS011;858;53.190;8.596;2023-12-29T00:21:19;7.70;;;3.50;;
1721;SDS011;858;53.190;8.596;2023-12-29T00:23:46;8.77;;;4.50;;
1721;SDS011;858;53.190;8.596;2023-12-29T00:26:16;11.43;;;3.13;;
1721;SDS011;858;53.190;8.596;2023-12-29T00:28:43;6.60;;;2.90;;
1721;SDS011;858;53.190;8.596;2023-12-29T00:31:13;10.20;;;3.07;;
1721;SDS011;858;53.190;8.596;2023-12-29T00:33:39;7.20;;;3.00;;
1721;SDS011;858;53.190;8.596;2023-12-29T00:36:06;10.90;;;4.53;;
1721;SDS011;858;53.190;8.596;2023-12-29T00:38:32;8.50;;;3.93;;
1721;SDS011;858;53.190;8.596;2023-12-29T00:40:58;8.90;;;3.23;;
1721;SDS011;858;53.190;8.596;2023-12-29T00:43:26;7.97;;;2.83;;
1721;SDS011;858;53.190;8.596;2023-12-29T00:45:53;7.07;;;2.93;;
1721;SDS011;858;53.190;8.596;2023-12-29T00:48:19;10.87;;;3.10;;
1721;SDS011;858;53.190;8.596;2023-12-29T00:50:45;7.97;;;2.40;;
1721;SDS011;858;53.190;8.596;2023-12-29T00:53:12;11.10;;;3.53;;
1721;SDS011;858;53.190;8.596;2023-12-29T00:55:38;14.13;;;4.03;;
1721;SDS011;858;53.190;8.596;2023-12-29T00:58:05;7.83;;;3.30;;
1721;SDS011;858;53.190;8.596;2023-12-29T01:00:32;4.83;;;2.30;;
1721;SDS011;858;53.190;8.596;2023-12-29T01:02:59;6.83;;;2.87;;
1721;SDS011;858;53.190;8.596;2023-12-29T01:05:25;8.40;;;2.43;;
1721;SDS011;858;53.190;8.596;2023-12-29T01:07:52;13.70;;;3.70;;
1721;SDS011;858;53.190;8.596;2023-12-29T01:10:19;5.93;;;2.50;;
1721;SDS011;858;53.190;8.596;2023-12-29T01:12:45;5.67;;;2.60;;
1721;SDS011;858;53.190;8.596;2023-12-29T01:15:12;7.37;;;3.37;;
1721;SDS011;858;53.190;8.596;2023-12-29T01:17:41;7.47;;;2.50;;
1721;SDS011;858;53.190;8.596;2023-12-29T01:20:08;9.40;;;2.60;;
1721;SDS011;858;53.190;8.596;2023-12-29T01:22:34;7.10;;;2.93;;
1721;SDS011;858;53.190;8.596;2023-12-29T01:25:01;4.73;;;2.50;;
1721;SDS011;858;53.190;8.596;2023-12-29T01:27:27;8.80;;;3.03;;
1721;SDS011;858;53.190;8.596;2023-12-29T01:29:53;4.37;;;2.20;;
1721;SDS011;858;53.190;8.596;2023-12-29T01:32:20;5.87;;;2.70;;
1721;SDS011;858;53.190;8.596;2023-12-29T01:34:48;5.10;;;2.37;;
1721;SDS011;858;53.190;8.596;2023-12-29T01:37:15;5.43;;;2.10;;
1721;SDS011;858;53.190;8.596;2023-12-29T01:39:41;3.80;;;2.50;;
1721;SDS011;858;53.190;8.596;2023-12-29T01:42:07;6.67;;;2.43;;
1721;SDS011;858;53.190;8.596;2023-12-29T01:44:35;9.67;;;3.17;;
1721;SDS011;858;53.190;8.596;2023-12-29T01:47:02;6.50;;;2.60;;
1721;SDS011;858;53.190;8.596;2023-12-29T01:49:30;7.00;;;2.87;;
1721;SDS011;858;53.190;8.596;2023-12-29T01:51:58;5.10;;;2.37;;
1721;SDS011;858;53.190;8.596;2023-12-29T01:54:25;6.13;;;2.67;;
1721;SDS011;858;53.190;8.596;2023-12-29T01:56:54;5.30;;;2.10;;
1721;SDS011;858;53.190;8.596;2023-12-29T01:59:22;13.23;;;2.60;;
1721;SDS011;858;53.190;8.596;2023-12-29T02:01:49;7.40;;;2.10;;
1721;SDS011;858;53.190;8.596;2023-12-29T02:04:16;2.50;;;2.17;;
1721;SDS011;858;53.190;8.596;2023-12-29T02:06:43;6.93;;;2.67;;
1721;SDS011;858;53.190;8.596;2023-12-29T02:09:11;5.47;;;1.90;;
1721;SDS011;858;53.190;8.596;2023-12-29T02:11:38;5.97;;;2.30;;
1721;SDS011;858;53.190;8.596;2023-12-29T02:14:04;11.47;;;2.90;;
1721;SDS011;858;53.190;8.596;2023-12-29T02:16:33;6.30;;;3.33;;
1721;SDS011;858;53.190;8.596;2023-12-29T02:19:01;7.47;;;2.80;;
1721;SDS011;858;53.190;8.596;2023-12-29T02:21:30;5.10;;;2.57;;
1721;SDS011;858;53.190;8.596;2023-12-29T02:23:56;6.77;;;2.80;;
1721;SDS011;858;53.190;8.596;2023-12-29T02:26:24;6.80;;;2.83;;
1721;SDS011;858;53.190;8.596;2023-12-29T02:28:55;5.93;;;2.47;;
1721;SDS011;858;53.190;8.596;2023-12-29T02:31:24;12.83;;;3.27;;
1721;SDS011;858;53.190;8.596;2023-12-29T02:33:51;7.60;;;3.87;;
1721;SDS011;858;53.190;8.596;2023-12-29T02:36:18;10.13;;;4.30;;
1721;SDS011;858;53.190;8.596;2023-12-29T02:38:45;11.70;;;3.60;;
1721;SDS011;858;53.190;8.596;2023-12-29T02:41:11;12.57;;;4.13;;
1721;SDS011;858;53.190;8.596;2023-12-29T02:43:41;16.70;;;3.33;;
1721;SDS011;858;53.190;8.596;2023-12-29T02:46:07;5.87;;;2.77;;
1721;SDS011;858;53.190;8.596;2023-12-29T02:48:34;6.60;;;3.33;;
1721;SDS011;858;53.190;8.596;2023-12-29T02:51:00;13.57;;;3.67;;
1721;SDS011;858;53.190;8.596;2023-12-29T02:53:27;8.60;;;3.33;;
1721;SDS011;858;53.190;8.596;2023-12-29T02:55:53;8.03;;;2.63;;
1721;SDS011;858;53.190;8.596;2023-12-29T02:58:19;12.83;;;3.90;;
1721;SDS011;858;53.190;8.596;2023-12-29T03:00:47;5.90;;;3.23;;
1721;SDS011;858;53.190;8.596;2023-12-29T03:03:14;9.63;;;2.50;;
1721;SDS011;858;53.190;8.596;2023-12-29T03:05:40;6.60;;;2.70;;
1721;SDS011;858;53.190;8.596;2023-12-29T03:08:06;9.47;;;2.80;;
1721;SDS011;858;53.190;8.596;2023-12-29T03:10:33;7.50;;;3.50;;
1721;SDS011;858;53.190;8.596;2023-12-29T03:12:59;10.93;;;3.60;;
1721;SDS011;858;53.190;8.596;2023-12-29T03:15:25;8.73;;;2.70;;
1721;SDS011;858;53.190;8.596;2023-12-29T03:17:53;7.00;;;2.73;;
1721;SDS011;858;53.190;8.596;2023-12-29T03:20:20;7.80;;;2.77;;
1721;SDS011;858;53.190;8.596;2023-12-29T03:22:46;9.73;;;3.60;;
1721;SDS011;858;53.190;8.596;2023-12-29T03:25:12;4.60;;;2.43;;
1721;SDS011;858;53.190;8.596;2023-12-29T03:27:39;5.27;;;2.10;;
1721;SDS011;858;53.190;8.596;2023-12-29T03:30:06;2.87;;;1.40;;
1721;SDS011;858;53.190;8.596;2023-12-29T03:32:32;3.27;;;1.10;;
1721;SDS011;858;53.190;8.596;2023-12-29T03:35:00;3.77;;;1.17;;
1721;SDS011;858;53.190;8.596;2023-12-29T03:37:27;2.87;;;1.43;;
1721;SDS011;858;53.190;8.596;2023-12-29T03:39:53;1.50;;;0.80;;
1721;SDS011;858;53.190;8.596;2023-12-29T03:42:19;7.83;;;1.37;;
1721;SDS011;858;53.190;8.596;2023-12-29T03:44:46;4.97;;;1.20;;
1721;SDS011;858;53.190;8.596;2023-12-29T03:47:12;3.00;;;1.40;;
1721;SDS011;858;53.190;8.596;2023-12-29T03:49:39;2.17;;;1.30;;
1721;SDS011;858;53.190;8.596;2023-12-29T03:52:06;8.43;;;1.37;;
1721;SDS011;858;53.190;8.596;2023-12-29T03:54:33;2.77;;;0.70;;
1721;SDS011;858;53.190;8.596;2023-12-29T03:56:59;6.40;;;1.07;;
1721;SDS011;858;53.190;8.596;2023-12-29T03:59:26;3.10;;;1.57;;
1721;SDS011;858;53.190;8.596;2023-12-29T04:01:53;7.23;;;1.87;;
1721;SDS011;858;53.190;8.596;2023-12-29T04:04:19;11.67;;;1.60;;
1721;SDS011;858;53.190;8.596;2023-12-29T04:06:46;6.27;;;1.60;;
1721;SDS011;858;53.190;8.596;2023-12-29T04:09:13;5.30;;;1.87;;
1721;SDS011;858;53.190;8.596;2023-12-29T04:11:40;2.27;;;1.50;;
1721;SDS011;858;53.190;8.596;2023-12-29T04:14:07;4.97;;;1.50;;
1721;SDS011;858;53.190;8.596;2023-12-29T04:16:37;5.77;;;1.20;;
1721;SDS011;858;53.190;8.596;2023-12-29T04:19:04;3.23;;;1.50;;
1721;SDS011;858;53.190;8.596;2023-12-29T04:21:30;7.80;;;2.23;;
1721;SDS011;858;53.190;8.596;2023-12-29T04:23:57;5.90;;;1.60;;
1721;SDS011;858;53.190;8.596;2023-12-29T04:26:25;7.10;;;1.90;;
1721;SDS011;858;53.190;8.596;2023-12-29T04:28:51;4.60;;;1.40;;
1721;SDS011;858;53.190;8.596;2023-12-29T04:31:17;1.70;;;1.60;;
1721;SDS011;858;53.190;8.596;2023-12-29T04:33:44;2.93;;;1.93;;
1721;SDS011;858;53.190;8.596;2023-12-29T04:36:11;9.83;;;3.50;;
1721;SDS011;858;53.190;8.596;2023-12-29T04:38:38;6.50;;;1.87;;
1721;SDS011;858;53.190;8.596;2023-12-29T04:41:05;3.33;;;2.00;;
1721;SDS011;858;53.190;8.596;2023-12-29T04:43:33;2.63;;;1.43;;
1721;SDS011;858;53.190;8.596;2023-12-29T04:46:00;7.60;;;1.87;;
1721;SDS011;858;53.190;8.596;2023-12-29T04:48:26;6.60;;;2.10;;
1721;SDS011;858;53.190;8.596;2023-12-29T04:50:53;6.13;;;2.13;;
1721;SDS011;858;53.190;8.596;2023-12-29T04:53:19;3.83;;;1.83;;
1721;SDS011;858;53.190;8.596;2023-12-29T04:55:46;6.13;;;2.70;;
1721;SDS011;858;53.190;8.596;2023-12-29T04:58:12;16.87;;;4.17;;
1721;SDS011;858;53.190;8.596;2023-12-29T05:00:40;11.53;;;4.90;;
1721;SDS011;858;53.190;8.596;2023-12-29T05:03:07;11.13;;;4.20;;
1721;SDS011;858;53.190;8.596;2023-12-29T05:05:33;9.23;;;3.37;;
1721;SDS011;858;53.190;8.596;2023-12-29T05:07:59;6.13;;;3.07;;
1721;SDS011;858;53.190;8.596;2023-12-29T05:10:26;6.87;;;3.23;;
1721;SDS011;858;53.190;8.596;2023-12-29T05:12:52;14.57;;;4.90;;
1721;SDS011;858;53.190;8.596;2023-12-29T05:15:19;12.67;;;7.03;;
1721;SDS011;858;53.190;8.596;2023-12-29T05:17:46;15.93;;;5.20;;
1721;SDS011;858;53.190;8.596;2023-12-29T05:20:13;16.47;;;5.37;;
1721;SDS011;858;53.190;8.596;2023-12-29T05:22:39;18.57;;;5.50;;
1721;SDS011;858;53.190;8.596;2023-12-29T05:25:06;8.23;;;4.67;;
1721;SDS011;858;53.190;8.596;2023-12-29T05:27:33;11.13;;;4.03;;
1721;SDS011;858;53.190;8.596;2023-12-29T05:29:59;16.33;;;5.40;;
1721;SDS011;858;53.190;8.596;2023-12-29T05:32:25;10.23;;;4.87;;
1721;SDS011;858;53.190;8.596;2023-12-29T05:34:53;9.20;;;3.80;;
1721;SDS011;858;53.190;8.596;2023-12-29T05:37:20;12.07;;;4.27;;
1721;SDS011;858;53.190;8.596;2023-12-29T05:39:46;9.30;;;3.63;;
1721;SDS011;858;53.190;8.596;2023-12-29T05:42:12;12.10;;;3.70;;
1721;SDS011;858;53.190;8.596;2023-12-29T05:44:39;6.17;;;2.50;;
1721;SDS011;858;53.190;8.596;2023-12-29T05:47:05;12.90;;;3.37;;
1721;SDS011;858;53.190;8.596;2023-12-29T05:49:32;15.33;;;3.47;;
1721;SDS011;858;53.190;8.596;2023-12-29T05:52:04;14.13;;;3.37;;
1721;SDS011;858;53.190;8.596;2023-12-29T05:54:31;6.10;;;3.50;;
1721;SDS011;858;53.190;8.596;2023-12-29T05:56:57;8.33;;;3.10;;
1721;SDS011;858;53.190;8.596;2023-12-29T05:59:24;11.40;;;3.40;;
1721;SDS011;858;53.190;8.596;2023-12-29T06:01:50;13.93;;;4.77;;
1721;SDS011;858;53.190;8.596;2023-12-29T06:04:17;12.90;;;3.47;;
1721;SDS011;858;53.190;8.596;2023-12-29T06:06:43;9.60;;;3.17;;
1721;SDS011;858;53.190;8.596;2023-12-29T06:09:11;9.53;;;2.97;;
1721;SDS011;858;53.190;8.596;2023-12-29T06:11:38;8.00;;;4.07;;
1721;SDS011;858;53.190;8.596;2023-12-29T06:14:04;10.23;;;3.53;;
1721;SDS011;858;53.190;8.596;2023-12-29T06:16:31;12.60;;;4.50;;
1721;SDS011;858;53.190;8.596;2023-12-29T06:18:57;7.10;;;2.70;;
1721;SDS011;858;53.190;8.596;2023-12-29T06:21:24;14.93;;;3.77;;
1721;SDS011;858;53.190;8.596;2023-12-29T06:23:50;9.40;;;3.70;;
1721;SDS011;858;53.190;8.596;2023-12-29T06:26:18;11.43;;;3.70;;
1721;SDS011;858;53.190;8.596;2023-12-29T06:28:45;11.93;;;3.50;;
1721;SDS011;858;53.190;8.596;2023-12-29T06:31:12;11.30;;;4.27;;
1721;SDS011;858;53.190;8.596;2023-12-29T06:33:40;12.57;;;3.97;;
1721;SDS011;858;53.190;8.596;2023-12-29T06:36:07;9.70;;;3.10;;
1721;SDS011;858;53.190;8.596;2023-12-29T06:38:33;17.27;;;4.07;;
1721;SDS011;858;53.190;8.596;2023-12-29T06:40:59;19.30;;;3.80;;
1721;SDS011;858;53.190;8.596;2023-12-29T06:43:27;13.53;;;3.10;;
1721;SDS011;858;53.190;8.596;2023-12-29T06:45:54;12.40;;;3.73;;
1721;SDS011;858;53.190;8.596;2023-12-29T06:48:20;12.17;;;4.20;;
1721;SDS011;858;53.190;8.596;2023-12-29T06:50:47;9.47;;;3.80;;
1721;SDS011;858;53.190;8.596;2023-12-29T06:53:13;11.20;;;3.20;;
1721;SDS011;858;53.190;8.596;2023-12-29T06:55:39;15.10;;;3.47;;
1721;SDS011;858;53.190;8.596;2023-12-29T06:58:06;15.20;;;3.30;;
1721;SDS011;858;53.190;8.596;2023-12-29T07:00:34;16.40;;;3.90;;
1721;SDS011;858;53.190;8.596;2023-12-29T07:03:01;8.60;;;2.90;;
1721;SDS011;858;53.190;8.596;2023-12-29T07:05:27;19.70;;;4.93;;
1721;SDS011;858;53.190;8.596;2023-12-29T07:07:53;14.97;;;4.23;;
1721;SDS011;858;53.190;8.596;2023-12-29T07:10:20;13.77;;;3.90;;
1721;SDS011;858;53.190;8.596;2023-12-29T07:12:46;15.70;;;4.57;;
1721;SDS011;858;53.190;8.596;2023-12-29T07:15:13;27.77;;;4.13;;
1721;SDS011;858;53.190;8.596;2023-12-29T07:17:41;9.87;;;3.97;;
1721;SDS011;858;53.190;8.596;2023-12-29T07:20:08;10.90;;;4.60;;
1721;SDS011;858;53.190;8.596;2023-12-29T07:22:34;19.97;;;4.10;;
1721;SDS011;858;53.190;8.596;2023-12-29T07:25:01;13.73;;;3.50;;
1721;SDS011;858;53.190;8.596;2023-12-29T07:27:27;9.33;;;2.77;;
1721;SDS011;858;53.190;8.596;2023-12-29T07:29:54;15.47;;;3.50;;
1721;SDS011;858;53.190;8.596;2023-12-29T07:32:20;10.63;;;3.57;;
1721;SDS011;858;53.190;8.596;2023-12-29T07:34:48;11.83;;;2.83;;
1721;SDS011;858;53.190;8.596;2023-12-29T07:37:15;12.00;;;4.20;;
1721;SDS011;858;53.190;8.596;2023-12-29T07:39:41;19.60;;;5.50;;
1721;SDS011;858;53.190;8.596;2023-12-29T07:42:08;12.97;;;4.90;;
1721;SDS011;858;53.190;8.596;2023-12-29T07:44:34;13.70;;;3.50;;
1721;SDS011;858;53.190;8.596;2023-12-29T07:47:00;18.37;;;5.50;;
1721;SDS011;858;53.190;8.596;2023-12-29T07:49:27;13.40;;;4.50;;
1721;SDS011;858;53.190;8.596;2023-12-29T07:51:55;21.97;;;4.30;;
1721;SDS011;858;53.190;8.596;2023-12-29T07:54:24;21.07;;;4.90;;
1721;SDS011;858;53.190;8.596;2023-12-29T07:56:50;12.57;;;3.80;;
1721;SDS011;858;53.190;8.596;2023-12-29T07:59:17;12.93;;;3.67;;
1721;SDS011;858;53.190;8.596;2023-12-29T08:01:43;20.73;;;3.80;;
1721;SDS011;858;53.190;8.596;2023-12-29T08:04:10;8.37;;;3.33;;
1721;SDS011;858;53.190;8.596;2023-12-29T08:06:36;20.23;;;4.07;;
1721;SDS011;858;53.190;8.596;2023-12-29T08:09:04;10.37;;;3.63;;
1721;SDS011;858;53.190;8.596;2023-12-29T08:11:32;12.90;;;3.77;;
1721;SDS011;858;53.190;8.596;2023-12-29T08:13:58;11.13;;;3.50;;
1721;SDS011;858;53.190;8.596;2023-12-29T08:16:25;16.20;;;4.30;;
1721;SDS011;858;53.190;8.596;2023-12-29T08:18:51;10.93;;;3.40;;
1721;SDS011;858;53.190;8.596;2023-12-29T08:21:18;10.50;;;3.77;;
1721;SDS011;858;53.190;8.596;2023-12-29T08:23:45;15.17;;;3.73;;
1721;SDS011;858;53.190;8.596;2023-12-29T08:26:13;13.07;;;4.07;;
1721;SDS011;858;53.190;8.596;2023-12-29T08:28:39;12.67;;;4.33;;
1721;SDS011;858;53.190;8.596;2023-12-29T08:31:06;8.77;;;2.93;;
1721;SDS011;858;53.190;8.596;2023-12-29T08:33:33;11.13;;;4.23;;
1721;SDS011;858;53.190;8.596;2023-12-29T08:36:01;13.70;;;4.53;;
1721;SDS011;858;53.190;8.596;2023-12-29T08:38:27;26.03;;;6.83;;
1721;SDS011;858;53.190;8.596;2023-12-29T08:40:54;9.17;;;3.40;;
1721;SDS011;858;53.190;8.596;2023-12-29T08:43:22;11.83;;;5.13;;
1721;SDS011;858;53.190;8.596;2023-12-29T08:45:49;15.10;;;4.17;;
1721;SDS011;858;53.190;8.596;2023-12-29T08:48:15;7.80;;;3.97;;
1721;SDS011;858;53.190;8.596;2023-12-29T08:50:41;20.80;;;5.00;;
1721;SDS011;858;53.190;8.596;2023-12-29T08:53:08;20.07;;;4.87;;
1721;SDS011;858;53.190;8.596;2023-12-29T08:55:35;9.00;;;3.20;;
1721;SDS011;858;53.190;8.596;2023-12-29T08:58:01;8.53;;;2.83;;
1721;SDS011;858;53.190;8.596;2023-12-29T09:00:29;13.47;;;2.80;;
1721;SDS011;858;53.190;8.596;2023-12-29T09:02:56;9.77;;;2.80;;
1721;SDS011;858;53.190;8.596;2023-12-29T09:05:22;5.43;;;2.40;;
1721;SDS011;858;53.190;8.596;2023-12-29T09:07:48;7.43;;;2.40;;
1721;SDS011;858;53.190;8.596;2023-12-29T09:10:16;6.50;;;2.70;;
1721;SDS011;858;53.190;8.596;2023-12-29T09:12:43;10.87;;;2.70;;
1721;SDS011;858;53.190;8.596;2023-12-29T09:15:10;10.80;;;3.10;;
1721;SDS011;858;53.190;8.596;2023-12-29T09:17:38;8.57;;;3.10;;
1721;SDS011;858;53.190;8.596;2023-12-29T09:20:05;10.50;;;3.90;;
1721;SDS011;858;53.190;8.596;2023-12-29T09:22:33;10.80;;;3.53;;
1721;SDS011;858;53.190;8.596;2023-12-29T09:24:59;15.33;;;2.83;;
1721;SDS011;858;53.190;8.596;2023-12-29T09:27:25;12.83;;;3.10;;
1721;SDS011;858;53.190;8.596;2023-12-29T09:29:52;9.43;;;3.20;;
1721;SDS011;858;53.190;8.596;2023-12-29T09:32:18;13.60;;;3.37;;
1721;SDS011;858;53.190;8.596;2023-12-29T09:34:46;15.87;;;3.50;;
1721;SDS011;858;53.190;8.596;2023-12-29T09:37:13;13.33;;;3.83;;
1721;SDS011;858;53.190;8.596;2023-12-29T09:39:39;18.23;;;3.60;;
1721;SDS011;858;53.190;8.596;2023-12-29T09:42:06;13.47;;;3.10;;
1721;SDS011;858;53.190;8.596;2023-12-29T09:44:33;15.53;;;4.20;;
1721;SDS011;858;53.190;8.596;2023-12-29T09:47:02;15.77;;;3.10;;
1721;SDS011;858;53.190;8.596;2023-12-29T09:49:30;12.63;;;3.83;;
1721;SDS011;858;53.190;8.596;2023-12-29T09:52:01;11.30;;;4.60;;
1721;SDS011;858;53.190;8.596;2023-12-29T09:54:28;17.70;;;4.00;;
1721;SDS011;858;53.190;8.596;2023-12-29T09:56:55;17.27;;;3.47;;
1721;SDS011;858;53.190;8.596;2023-12-29T09:59:21;14.53;;;4.23;;
1721;SDS011;858;53.190;8.596;2023-12-29T10:01:49;10.43;;;4.17;;
1721;SDS011;858;53.190;8.596;2023-12-29T10:04:16;16.50;;;4.97;;
1721;SDS011;858;53.190;8.596;2023-12-29T10:06:43;10.43;;;4.17;;
1721;SDS011;858;53.190;8.596;2023-12-29T10:09:13;10.20;;;3.53;;
1721;SDS011;858;53.190;8.596;2023-12-29T10:11:41;13.80;;;3.97;;
1721;SDS011;858;53.190;8.596;2023-12-29T10:14:09;7.43;;;3.20;;
1721;SDS011;858;53.190;8.596;2023-12-29T10:16:44;13.23;;;4.17;;
1721;SDS011;858;53.190;8.596;2023-12-29T10:19:16;15.70;;;5.00;;
1721;SDS011;858;53.190;8.596;2023-12-29T10:21:48;13.40;;;3.77;;
1721;SDS011;858;53.190;8.596;2023-12-29T10:24:18;18.03;;;4.13;;
1721;SDS011;858;53.190;8.596;2023-12-29T10:26:45;12.57;;;3.70;;
1721;SDS011;858;53.190;8.596;2023-12-29T10:29:12;12.27;;;3.40;;
1721;SDS011;858;53.190;8.596;2023-12-29T10:31:38;9.60;;;4.00;;
1721;SDS011;858;53.190;8.596;2023-12-29T10:34:17;4.77;;;2.40;;
1721;SDS011;858;53.190;8.596;2023-12-29T10:36:47;6.30;;;2.60;;
1721;SDS011;858;53.190;8.596;2023-12-29T10:39:15;5.40;;;2.40;;
1721;SDS011;858;53.190;8.596;2023-12-29T10:41:43;5.23;;;3.70;;
1721;SDS011;858;53.190;8.596;2023-12-29T10:44:10;11.07;;;2.93;;
1721;SDS011;858;53.190;8.596;2023-12-29T10:46:36;4.57;;;2.37;;
1721;SDS011;858;53.190;8.596;2023-12-29T10:49:09;5.17;;;2.40;;
1721;SDS011;858;53.190;8.596;2023-12-29T10:51:35;14.57;;;3.27;;
1721;SDS011;858;53.190;8.596;2023-12-29T10:54:03;13.37;;;3.80;;
1721;SDS011;858;53.190;8.596;2023-12-29T10:56:29;2.90;;;1.83;;
1721;SDS011;858;53.190;8.596;2023-12-29T10:59:01;7.60;;;2.53;;
1721;SDS011;858;53.190;8.596;2023-12-29T11:01:28;6.93;;;2.80;;
1721;SDS011;858;53.190;8.596;2023-12-29T11:03:58;7.27;;;2.60;;
1721;SDS011;858;53.190;8.596;2023-12-29T11:06:26;9.00;;;2.53;;
1721;SDS011;858;53.190;8.596;2023-12-29T11:08:52;9.30;;;3.63;;
1721;SDS011;858;53.190;8.596;2023-12-29T11:11:18;4.33;;;1.90;;
1721;SDS011;858;53.190;8.596;2023-12-29T11:13:45;7.27;;;2.03;;
1721;SDS011;858;53.190;8.596;2023-12-29T11:16:13;2.90;;;2.27;;
1721;SDS011;858;53.190;8.596;2023-12-29T11:18:42;6.33;;;2.43;;
1721;SDS011;858;53.190;8.596;2023-12-29T11:21:09;7.23;;;2.37;;
1721;SDS011;858;53.190;8.596;2023-12-29T11:23:37;5.07;;;2.53;;
1721;SDS011;858;53.190;8.596;2023-12-29T11:26:04;5.03;;;1.93;;
1721;SDS011;858;53.190;8.596;2023-12-29T11:28:30;5.27;;;1.90;;
1721;SDS011;858;53.190;8.596;2023-12-29T11:30:56;15.23;;;7.03;;
1721;SDS011;858;53.190;8.596;2023-12-29T11:33:26;9.00;;;4.63;;
1721;SDS011;858;53.190;8.596;2023-12-29T11:35:54;6.63;;;2.70;;
1721;SDS011;858;53.190;8.596;2023-12-29T11:38:32;5.37;;;2.83;;
1721;SDS011;858;53.190;8.596;2023-12-29T11:41:01;8.67;;;4.47;;
1721;SDS011;858;53.190;8.596;2023-12-29T11:43:29;5.10;;;2.33;;
1721;SDS011;858;53.190;8.596;2023-12-29T11:45:56;10.50;;;2.97;;
1721;SDS011;858;53.190;8.596;2023-12-29T11:53:49;7.20;;;2.90;;
1721;SDS011;858;53.190;8.596;2023-12-29T11:56:16;7.90;;;2.90;;
1721;SDS011;858;53.190;8.596;2023-12-29T11:58:42;6.20;;;2.77;;
1721;SDS011;858;53.190;8.596;2023-12-29T12:01:08;4.50;;;2.60;;
1721;SDS011;858;53.190;8.596;2023-12-29T12:03:35;6.87;;;2.33;;
1721;SDS011;858;53.190;8.596;2023-12-29T12:06:01;7.00;;;2.33;;
1721;SDS011;858;53.190;8.596;2023-12-29T12:08:29;6.90;;;2.57;;
1721;SDS011;858;53.190;8.596;2023-12-29T12:10:57;5.67;;;2.00;;
1721;SDS011;858;53.190;8.596;2023-12-29T12:13:43;4.60;;;2.20;;
1721;SDS011;858;53.190;8.596;2023-12-29T12:16:18;5.30;;;2.23;;
1721;SDS011;858;53.190;8.596;2023-12-29T12:19:05;4.70;;;1.60;;
1721;SDS011;858;53.190;8.596;2023-12-29T12:21:31;5.03;;;2.63;;
1721;SDS011;858;53.190;8.596;2023-12-29T12:23:58;6.60;;;2.50;;
1721;SDS011;858;53.190;8.596;2023-12-29T12:26:26;9.63;;;2.20;;
1721;SDS011;858;53.190;8.596;2023-12-29T12:28:53;8.33;;;2.33;;
1721;SDS011;858;53.190;8.596;2023-12-29T12:31:19;6.93;;;2.10;;
1721;SDS011;858;53.190;8.596;2023-12-29T12:33:52;3.13;;;2.10;;
1721;SDS011;858;53.190;8.596;2023-12-29T12:36:20;5.93;;;2.73;;
1721;SDS011;858;53.190;8.596;2023-12-29T12:38:50;3.23;;;1.90;;
1721;SDS011;858;53.190;8.596;2023-12-29T12:41:17;9.40;;;1.80;;
1721;SDS011;858;53.190;8.596;2023-12-29T12:43:47;7.03;;;1.77;;
1721;SDS011;858;53.190;8.596;2023-12-29T12:46:16;9.10;;;2.13;;
1721;SDS011;858;53.190;8.596;2023-12-29T12:48:43;5.00;;;1.90;;
1721;SDS011;858;53.190;8.596;2023-12-29T12:51:10;7.23;;;2.37;;
1721;SDS011;858;53.190;8.596;2023-12-29T12:53:39;7.47;;;1.87;;
1721;SDS011;858;53.190;8.596;2023-12-29T12:56:05;9.73;;;2.13;;
1721;SDS011;858;53.190;8.596;2023-12-29T12:58:32;8.10;;;2.20;;
1721;SDS011;858;53.190;8.596;2023-12-29T13:01:00;8.77;;;2.50;;
1721;SDS011;858;53.190;8.596;2023-12-29T13:03:27;11.47;;;2.57;;
1721;SDS011;858;53.190;8.596;2023-12-29T13:05:54;15.80;;;2.10;;
1721;SDS011;858;53.190;8.596;2023-12-29T13:08:23;14.20;;;3.00;;
1721;SDS011;858;53.190;8.596;2023-12-29T13:10:50;8.63;;;3.47;;
1721;SDS011;858;53.190;8.596;2023-12-29T13:13:16;11.07;;;2.90;;
1721;SDS011;858;53.190;8.596;2023-12-29T13:15:47;9.90;;;2.30;;
1721;SDS011;858;53.190;8.596;2023-12-29T13:18:15;9.37;;;2.17;;
1721;SDS011;858;53.190;8.596;2023-12-29T13:20:44;6.83;;;2.60;;
1721;SDS011;858;53.190;8.596;2023-12-29T13:23:11;14.10;;;3.17;;
1721;SDS011;858;53.190;8.596;2023-12-29T13:25:37;8.17;;;2.97;;
1721;SDS011;858;53.190;8.596;2023-12-29T13:28:05;7.70;;;2.30;;
1721;SDS011;858;53.190;8.596;2023-12-29T13:30:32;7.33;;;3.33;;
1721;SDS011;858;53.190;8.596;2023-12-29T13:32:59;12.87;;;3.10;;
1721;SDS011;858;53.190;8.596;2023-12-29T13:35:31;8.03;;;2.03;;
1721;SDS011;858;53.190;8.596;2023-12-29T13:38:01;13.00;;;4.57;;
1721;SDS011;858;53.190;8.596;2023-12-29T13:40:31;7.63;;;2.40;;
1721;SDS011;858;53.190;8.596;2023-12-29T13:43:01;10.90;;;3.50;;
1721;SDS011;858;53.190;8.596;2023-12-29T13:45:28;7.10;;;3.00;;
1721;SDS011;858;53.190;8.596;2023-12-29T13:47:55;8.83;;;2.60;;
1721;SDS011;858;53.190;8.596;2023-12-29T13:50:22;9.40;;;3.27;;
1721;SDS011;858;53.190;8.596;2023-12-29T13:52:50;6.90;;;2.60;;
1721;SDS011;858;53.190;8.596;2023-12-29T13:55:20;6.17;;;2.47;;
1721;SDS011;858;53.190;8.596;2023-12-29T13:57:47;11.23;;;2.70;;
1721;SDS011;858;53.190;8.596;2023-12-29T14:00:17;6.13;;;2.70;;
1721;SDS011;858;53.190;8.596;2023-12-29T14:02:45;11.23;;;2.33;;
1721;SDS011;858;53.190;8.596;2023-12-29T14:05:18;7.73;;;2.93;;
1721;SDS011;858;53.190;8.596;2023-12-29T14:07:45;14.23;;;3.30;;
1721;SDS011;858;53.190;8.596;2023-12-29T14:10:14;10.20;;;3.00;;
1721;SDS011;858;53.190;8.596;2023-12-29T14:12:40;14.60;;;3.93;;
1721;SDS011;858;53.190;8.596;2023-12-29T14:15:07;9.40;;;3.20;;
1721;SDS011;858;53.190;8.596;2023-12-29T14:17:34;3.33;;;2.17;;
1721;SDS011;858;53.190;8.596;2023-12-29T14:20:00;6.90;;;2.50;;
1721;SDS011;858;53.190;8.596;2023-12-29T14:22:31;10.07;;;3.63;;
1721;SDS011;858;53.190;8.596;2023-12-29T14:24:59;11.03;;;3.03;;
1721;SDS011;858;53.190;8.596;2023-12-29T14:27:27;10.30;;;3.70;;
1721;SDS011;858;53.190;8.596;2023-12-29T14:29:54;14.67;;;3.90;;
1721;SDS011;858;53.190;8.596;2023-12-29T14:32:20;11.93;;;3.50;;
1721;SDS011;858;53.190;8.596;2023-12-29T14:34:47;13.90;;;2.87;;
1721;SDS011;858;53.190;8.596;2023-12-29T14:37:17;10.40;;;3.80;;
1721;SDS011;858;53.190;8.596;2023-12-29T14:39:46;6.97;;;3.03;;
1721;SDS011;858;53.190;8.596;2023-12-29T14:42:13;10.43;;;3.10;;
1721;SDS011;858;53.190;8.596;2023-12-29T14:44:40;4.80;;;2.80;;
1721;SDS011;858;53.190;8.596;2023-12-29T14:47:07;9.70;;;2.70;;
1721;SDS011;858;53.190;8.596;2023-12-29T14:49:33;13.73;;;2.70;;
1721;SDS011;858;53.190;8.596;2023-12-29T14:52:00;13.00;;;4.20;;
1721;SDS011;858;53.190;8.596;2023-12-29T14:54:26;11.93;;;4.53;;
1721;SDS011;858;53.190;8.596;2023-12-29T14:56:52;13.93;;;3.30;;
1721;SDS011;858;53.190;8.596;2023-12-29T14:59:20;12.77;;;2.97;;
1721;SDS011;858;53.190;8.596;2023-12-29T15:01:47;8.67;;;2.60;;
1721;SDS011;858;53.190;8.596;2023-12-29T15:04:14;9.93;;;2.80;;
1721;SDS011;858;53.190;8.596;2023-12-29T15:06:40;11.47;;;3.53;;
1721;SDS011;858;53.190;8.596;2023-12-29T15:09:07;8.00;;;2.90;;
1721;SDS011;858;53.190;8.596;2023-12-29T15:11:35;11.03;;;3.33;;
1721;SDS011;858;53.190;8.596;2023-12-29T15:14:02;16.10;;;3.13;;
1721;SDS011;858;53.190;8.596;2023-12-29T15:16:28;13.53;;;3.87;;
1721;SDS011;858;53.190;8.596;2023-12-29T15:18:56;15.33;;;2.80;;
1721;SDS011;858;53.190;8.596;2023-12-29T15:21:22;13.60;;;2.90;;
1721;SDS011;858;53.190;8.596;2023-12-29T15:23:49;10.47;;;5.10;;
1721;SDS011;858;53.190;8.596;2023-12-29T15:26:15;10.20;;;3.00;;
1721;SDS011;858;53.190;8.596;2023-12-29T15:28:43;13.90;;;3.07;;
1721;SDS011;858;53.190;8.596;2023-12-29T15:31:10;7.20;;;2.60;;